sensor_id;sensor_type;location;lat;lon;timestamp;P1;durP1;ratioP1;P2;durP2;ratioP2
13061;SDS011;6597;52.218;9.882;2024-01-30T00:01:50;15.40;;;7.70;;
13061;SDS011;6597;52.218;9.882;2024-01-30T00:04:18;18.57;;;7.20;;
13061;SDS011;6597;52.218;9.882;2024-01-30T00:06:45;17.03;;;7.73;;
13061;SDS011;6597;52.218;9.882;2024-01-30T00:09:12;13.23;;;7.20;;
13061;SDS011;6597;52.218;9.882;2024-01-30T00:11:38;20.57;;;8.30;;
13061;SDS011;6597;52.218;9.882;2024-01-30T00:14:06;14.97;;;6.93;;
13061;SDS011;6597;52.218;9.882;2024-01-30T00:16:32;14.43;;;7.03;;
13061;SDS011;6597;52.218;9.882;2024-01-30T00:18:59;14.40;;;7.33;;
13061;SDS011;6597;52.218;9.882;2024-01-30T00:21:28;18.37;;;8.50;;
13061;SDS011;6597;52.218;9.882;2024-01-30T00:23:55;14.87;;;8.00;;
13061;SDS011;6597;52.218;9.882;2024-01-30T00:26:21;9.13;;;6.73;;
13061;SDS011;6597;52.218;9.882;2024-01-30T00:28:48;14.33;;;7.47;;
13061;SDS011;6597;52.218;9.882;2024-01-30T00:31:14;13.67;;;7.73;;
13061;SDS011;6597;52.218;9.882;2024-01-30T00:33:41;16.07;;;8.20;;
13061;SDS011;6597;52.218;9.882;2024-01-30T00:36:08;15.33;;;7.63;;
13061;SDS011;6597;52.218;9.882;2024-01-30T00:38:37;17.50;;;8.40;;
13061;SDS011;6597;52.218;9.882;2024-01-30T00:41:03;13.73;;;7.80;;
13061;SDS011;6597;52.218;9.882;2024-01-30T00:43:30;12.93;;;7.87;;
13061;SDS011;6597;52.218;9.882;2024-01-30T00:45:57;13.03;;;7.57;;
13061;SDS011;6597;52.218;9.882;2024-01-30T00:48:24;16.23;;;7.37;;
13061;SDS011;6597;52.218;9.882;2024-01-30T00:50:50;16.23;;;7.67;;
13061;SDS011;6597;52.218;9.882;2024-01-30T00:53:17;14.53;;;7.17;;
13061;SDS011;6597;52.218;9.882;2024-01-30T00:55:45;13.83;;;7.30;;
13061;SDS011;6597;52.218;9.882;2024-01-30T00:58:11;12.37;;;7.83;;
13061;SDS011;6597;52.218;9.882;2024-01-30T01:00:38;16.17;;;7.07;;
13061;SDS011;6597;52.218;9.882;2024-01-30T01:03:05;15.17;;;7.83;;
13061;SDS011;6597;52.218;9.882;2024-01-30T01:05:31;12.63;;;7.53;;
13061;SDS011;6597;52.218;9.882;2024-01-30T01:07:58;18.03;;;7.93;;
13061;SDS011;6597;52.218;9.882;2024-01-30T01:10:24;15.20;;;7.97;;
13061;SDS011;6597;52.218;9.882;2024-01-30T01:12:53;17.07;;;8.50;;
13061;SDS011;6597;52.218;9.882;2024-01-30T01:15:20;16.67;;;8.20;;
13061;SDS011;6597;52.218;9.882;2024-01-30T01:17:46;19.33;;;9.73;;
13061;SDS011;6597;52.218;9.882;2024-01-30T01:20:14;15.40;;;8.87;;
13061;SDS011;6597;52.218;9.882;2024-01-30T01:22:40;14.67;;;8.40;;
13061;SDS011;6597;52.218;9.882;2024-01-30T01:25:08;14.57;;;8.63;;
13061;SDS011;6597;52.218;9.882;2024-01-30T01:27:35;17.47;;;9.23;;
13061;SDS011;6597;52.218;9.882;2024-01-30T01:30:08;15.27;;;9.17;;
13061;SDS011;6597;52.218;9.882;2024-01-30T01:32:36;14.00;;;8.83;;
13061;SDS011;6597;52.218;9.882;2024-01-30T01:35:03;19.13;;;9.03;;
13061;SDS011;6597;52.218;9.882;2024-01-30T01:37:31;19.97;;;7.93;;
13061;SDS011;6597;52.218;9.882;2024-01-30T01:39:58;19.50;;;9.07;;
13061;SDS011;6597;52.218;9.882;2024-01-30T01:42:24;15.87;;;8.33;;
13061;SDS011;6597;52.218;9.882;2024-01-30T01:44:51;12.33;;;7.77;;
13061;SDS011;6597;52.218;9.882;2024-01-30T01:47:19;11.60;;;7.83;;
13061;SDS011;6597;52.218;9.882;2024-01-30T01:49:46;16.90;;;7.97;;
13061;SDS011;6597;52.218;9.882;2024-01-30T01:52:13;15.17;;;8.43;;
13061;SDS011;6597;52.218;9.882;2024-01-30T01:54:39;15.87;;;8.47;;
13061;SDS011;6597;52.218;9.882;2024-01-30T01:57:06;18.47;;;8.97;;
13061;SDS011;6597;52.218;9.882;2024-01-30T01:59:33;14.07;;;7.83;;
13061;SDS011;6597;52.218;9.882;2024-01-30T02:02:00;15.77;;;8.30;;
13061;SDS011;6597;52.218;9.882;2024-01-30T02:04:31;14.30;;;8.53;;
13061;SDS011;6597;52.218;9.882;2024-01-30T02:06:57;15.83;;;8.80;;
13061;SDS011;6597;52.218;9.882;2024-01-30T02:09:24;15.87;;;8.53;;
13061;SDS011;6597;52.218;9.882;2024-01-30T02:11:51;17.13;;;8.93;;
13061;SDS011;6597;52.218;9.882;2024-01-30T02:14:17;17.13;;;8.63;;
13061;SDS011;6597;52.218;9.882;2024-01-30T02:16:44;13.47;;;8.00;;
13061;SDS011;6597;52.218;9.882;2024-01-30T02:19:10;16.30;;;8.53;;
13061;SDS011;6597;52.218;9.882;2024-01-30T02:21:38;15.63;;;9.40;;
13061;SDS011;6597;52.218;9.882;2024-01-30T02:24:05;17.27;;;9.00;;
13061;SDS011;6597;52.218;9.882;2024-01-30T02:26:32;18.13;;;9.47;;
13061;SDS011;6597;52.218;9.882;2024-01-30T02:28:58;12.70;;;8.67;;
13061;SDS011;6597;52.218;9.882;2024-01-30T02:31:25;15.53;;;9.03;;
13061;SDS011;6597;52.218;9.882;2024-01-30T02:33:50;16.83;;;9.53;;
13061;SDS011;6597;52.218;9.882;2024-01-30T02:36:17;15.90;;;9.20;;
13061;SDS011;6597;52.218;9.882;2024-01-30T02:38:45;16.83;;;9.13;;
13061;SDS011;6597;52.218;9.882;2024-01-30T02:41:12;20.57;;;9.87;;
13061;SDS011;6597;52.218;9.882;2024-01-30T02:43:39;15.03;;;9.03;;
13061;SDS011;6597;52.218;9.882;2024-01-30T02:46:05;20.03;;;9.07;;
13061;SDS011;6597;52.218;9.882;2024-01-30T02:48:32;19.00;;;9.13;;
13061;SDS011;6597;52.218;9.882;2024-01-30T02:50:58;19.17;;;9.30;;
13061;SDS011;6597;52.218;9.882;2024-01-30T02:53:25;14.47;;;7.80;;
13061;SDS011;6597;52.218;9.882;2024-01-30T02:55:53;19.97;;;8.73;;
13061;SDS011;6597;52.218;9.882;2024-01-30T02:58:19;16.60;;;8.93;;
13061;SDS011;6597;52.218;9.882;2024-01-30T03:00:46;11.87;;;7.77;;
13061;SDS011;6597;52.218;9.882;2024-01-30T03:03:13;17.13;;;9.30;;
13061;SDS011;6597;52.218;9.882;2024-01-30T03:05:39;16.07;;;9.07;;
13061;SDS011;6597;52.218;9.882;2024-01-30T03:08:06;15.60;;;8.87;;
13061;SDS011;6597;52.218;9.882;2024-01-30T03:10:31;12.80;;;8.67;;
13061;SDS011;6597;52.218;9.882;2024-01-30T03:12:59;16.80;;;8.63;;
13061;SDS011;6597;52.218;9.882;2024-01-30T03:15:25;16.83;;;9.13;;
13061;SDS011;6597;52.218;9.882;2024-01-30T03:17:52;18.20;;;9.10;;
13061;SDS011;6597;52.218;9.882;2024-01-30T03:20:19;16.07;;;8.17;;
13061;SDS011;6597;52.218;9.882;2024-01-30T03:22:46;13.87;;;8.00;;
13061;SDS011;6597;52.218;9.882;2024-01-30T03:25:12;15.97;;;8.60;;
13061;SDS011;6597;52.218;9.882;2024-01-30T03:27:39;18.37;;;8.97;;
13061;SDS011;6597;52.218;9.882;2024-01-30T03:30:07;13.80;;;8.47;;
13061;SDS011;6597;52.218;9.882;2024-01-30T03:32:34;19.03;;;8.57;;
13061;SDS011;6597;52.218;9.882;2024-01-30T03:35:01;13.70;;;8.97;;
13061;SDS011;6597;52.218;9.882;2024-01-30T03:37:27;18.73;;;8.70;;
13061;SDS011;6597;52.218;9.882;2024-01-30T03:39:54;17.30;;;8.80;;
13061;SDS011;6597;52.218;9.882;2024-01-30T03:42:21;11.87;;;7.77;;
13061;SDS011;6597;52.218;9.882;2024-01-30T03:44:48;12.90;;;8.40;;
13061;SDS011;6597;52.218;9.882;2024-01-30T03:47:18;18.73;;;8.93;;
13061;SDS011;6597;52.218;9.882;2024-01-30T03:49:44;18.13;;;8.70;;
13061;SDS011;6597;52.218;9.882;2024-01-30T03:52:11;18.23;;;9.17;;
13061;SDS011;6597;52.218;9.882;2024-01-30T03:54:38;19.70;;;8.60;;
13061;SDS011;6597;52.218;9.882;2024-01-30T03:57:04;20.40;;;9.13;;
13061;SDS011;6597;52.218;9.882;2024-01-30T03:59:31;15.20;;;8.43;;
13061;SDS011;6597;52.218;9.882;2024-01-30T04:01:57;17.97;;;8.70;;
13061;SDS011;6597;52.218;9.882;2024-01-30T04:04:25;19.00;;;8.60;;
13061;SDS011;6597;52.218;9.882;2024-01-30T04:06:52;13.70;;;8.03;;
13061;SDS011;6597;52.218;9.882;2024-01-30T04:09:18;17.23;;;8.57;;
13061;SDS011;6597;52.218;9.882;2024-01-30T04:11:45;18.40;;;7.80;;
13061;SDS011;6597;52.218;9.882;2024-01-30T04:14:11;15.27;;;7.67;;
13061;SDS011;6597;52.218;9.882;2024-01-30T04:16:38;14.73;;;7.50;;
13061;SDS011;6597;52.218;9.882;2024-01-30T04:19:04;14.03;;;8.13;;
13061;SDS011;6597;52.218;9.882;2024-01-30T04:21:32;14.33;;;7.60;;
13061;SDS011;6597;52.218;9.882;2024-01-30T04:23:59;11.27;;;7.07;;
13061;SDS011;6597;52.218;9.882;2024-01-30T04:26:25;12.87;;;6.73;;
13061;SDS011;6597;52.218;9.882;2024-01-30T04:28:52;10.50;;;6.87;;
13061;SDS011;6597;52.218;9.882;2024-01-30T04:31:18;15.20;;;7.47;;
13061;SDS011;6597;52.218;9.882;2024-01-30T04:33:45;13.97;;;7.57;;
13061;SDS011;6597;52.218;9.882;2024-01-30T04:36:11;18.00;;;8.23;;
13061;SDS011;6597;52.218;9.882;2024-01-30T04:38:39;15.00;;;6.93;;
13061;SDS011;6597;52.218;9.882;2024-01-30T04:41:06;16.87;;;7.60;;
13061;SDS011;6597;52.218;9.882;2024-01-30T04:43:33;13.43;;;7.03;;
13061;SDS011;6597;52.218;9.882;2024-01-30T04:46:00;15.63;;;7.20;;
13061;SDS011;6597;52.218;9.882;2024-01-30T04:48:26;14.10;;;7.27;;
13061;SDS011;6597;52.218;9.882;2024-01-30T04:50:53;10.13;;;6.27;;
13061;SDS011;6597;52.218;9.882;2024-01-30T04:53:21;13.77;;;7.23;;
13061;SDS011;6597;52.218;9.882;2024-01-30T04:55:49;18.63;;;7.53;;
13061;SDS011;6597;52.218;9.882;2024-01-30T04:58:15;15.07;;;7.53;;
13061;SDS011;6597;52.218;9.882;2024-01-30T05:00:42;15.60;;;7.60;;
13061;SDS011;6597;52.218;9.882;2024-01-30T05:03:08;13.87;;;7.57;;
13061;SDS011;6597;52.218;9.882;2024-01-30T05:05:35;14.47;;;7.83;;
13061;SDS011;6597;52.218;9.882;2024-01-30T05:08:01;17.47;;;8.63;;
13061;SDS011;6597;52.218;9.882;2024-01-30T05:10:28;13.57;;;7.63;;
13061;SDS011;6597;52.218;9.882;2024-01-30T05:12:56;19.80;;;8.20;;
13061;SDS011;6597;52.218;9.882;2024-01-30T05:15:22;17.07;;;7.50;;
13061;SDS011;6597;52.218;9.882;2024-01-30T05:17:49;16.27;;;7.27;;
13061;SDS011;6597;52.218;9.882;2024-01-30T05:20:16;17.23;;;7.63;;
13061;SDS011;6597;52.218;9.882;2024-01-30T05:22:42;11.47;;;7.00;;
13061;SDS011;6597;52.218;9.882;2024-01-30T05:25:10;20.60;;;7.60;;
13061;SDS011;6597;52.218;9.882;2024-01-30T05:27:37;15.23;;;7.17;;
13061;SDS011;6597;52.218;9.882;2024-01-30T05:30:05;20.43;;;8.13;;
13061;SDS011;6597;52.218;9.882;2024-01-30T05:32:33;16.00;;;7.10;;
13061;SDS011;6597;52.218;9.882;2024-01-30T05:34:59;17.10;;;7.67;;
13061;SDS011;6597;52.218;9.882;2024-01-30T05:37:26;13.77;;;7.03;;
13061;SDS011;6597;52.218;9.882;2024-01-30T05:39:52;14.20;;;6.90;;
13061;SDS011;6597;52.218;9.882;2024-01-30T05:42:19;13.10;;;7.33;;
13061;SDS011;6597;52.218;9.882;2024-01-30T05:44:45;13.63;;;7.40;;
13061;SDS011;6597;52.218;9.882;2024-01-30T05:47:13;16.03;;;7.53;;
13061;SDS011;6597;52.218;9.882;2024-01-30T05:49:40;15.87;;;7.87;;
13061;SDS011;6597;52.218;9.882;2024-01-30T05:52:07;12.10;;;7.17;;
13061;SDS011;6597;52.218;9.882;2024-01-30T05:54:34;15.33;;;7.47;;
13061;SDS011;6597;52.218;9.882;2024-01-30T05:57:00;15.27;;;7.90;;
13061;SDS011;6597;52.218;9.882;2024-01-30T05:59:26;10.60;;;6.97;;
13061;SDS011;6597;52.218;9.882;2024-01-30T06:01:53;18.53;;;8.30;;
13061;SDS011;6597;52.218;9.882;2024-01-30T06:04:20;14.37;;;7.30;;
13061;SDS011;6597;52.218;9.882;2024-01-30T06:06:47;13.20;;;6.67;;
13061;SDS011;6597;52.218;9.882;2024-01-30T06:09:13;16.63;;;7.10;;
13061;SDS011;6597;52.218;9.882;2024-01-30T06:11:40;13.90;;;7.40;;
13061;SDS011;6597;52.218;9.882;2024-01-30T06:14:06;13.93;;;6.80;;
13061;SDS011;6597;52.218;9.882;2024-01-30T06:16:33;15.80;;;7.07;;
13061;SDS011;6597;52.218;9.882;2024-01-30T06:19:00;13.50;;;6.63;;
13061;SDS011;6597;52.218;9.882;2024-01-30T06:21:27;16.83;;;7.43;;
13061;SDS011;6597;52.218;9.882;2024-01-30T06:23:55;12.10;;;6.70;;
13061;SDS011;6597;52.218;9.882;2024-01-30T06:26:22;18.27;;;7.40;;
13061;SDS011;6597;52.218;9.882;2024-01-30T06:28:48;13.67;;;7.23;;
13061;SDS011;6597;52.218;9.882;2024-01-30T06:31:15;13.43;;;7.67;;
13061;SDS011;6597;52.218;9.882;2024-01-30T06:33:41;13.77;;;7.23;;
13061;SDS011;6597;52.218;9.882;2024-01-30T06:36:08;14.30;;;7.80;;
13061;SDS011;6597;52.218;9.882;2024-01-30T06:38:36;11.73;;;7.73;;
13061;SDS011;6597;52.218;9.882;2024-01-30T06:41:02;14.27;;;7.13;;
13061;SDS011;6597;52.218;9.882;2024-01-30T06:43:29;16.33;;;7.60;;
13061;SDS011;6597;52.218;9.882;2024-01-30T06:45:55;14.37;;;6.77;;
13061;SDS011;6597;52.218;9.882;2024-01-30T06:48:22;14.80;;;7.57;;
13061;SDS011;6597;52.218;9.882;2024-01-30T06:50:49;11.53;;;6.93;;
13061;SDS011;6597;52.218;9.882;2024-01-30T06:53:15;15.07;;;7.23;;
13061;SDS011;6597;52.218;9.882;2024-01-30T06:55:43;12.97;;;7.00;;
13061;SDS011;6597;52.218;9.882;2024-01-30T06:58:10;15.67;;;7.93;;
13061;SDS011;6597;52.218;9.882;2024-01-30T07:00:37;15.90;;;7.63;;
13061;SDS011;6597;52.218;9.882;2024-01-30T07:03:03;13.27;;;7.10;;
13061;SDS011;6597;52.218;9.882;2024-01-30T07:05:31;15.50;;;8.00;;
13061;SDS011;6597;52.218;9.882;2024-01-30T07:07:58;13.13;;;7.80;;
13061;SDS011;6597;52.218;9.882;2024-01-30T07:10:24;18.07;;;8.37;;
13061;SDS011;6597;52.218;9.882;2024-01-30T07:12:52;12.27;;;7.07;;
13061;SDS011;6597;52.218;9.882;2024-01-30T07:15:19;12.90;;;7.10;;
13061;SDS011;6597;52.218;9.882;2024-01-30T07:17:45;11.67;;;7.00;;
13061;SDS011;6597;52.218;9.882;2024-01-30T07:20:12;16.00;;;7.27;;
13061;SDS011;6597;52.218;9.882;2024-01-30T07:22:39;16.03;;;7.43;;
13061;SDS011;6597;52.218;9.882;2024-01-30T07:25:06;17.37;;;8.77;;
13061;SDS011;6597;52.218;9.882;2024-01-30T07:27:33;17.47;;;8.07;;
13061;SDS011;6597;52.218;9.882;2024-01-30T07:30:01;17.40;;;8.33;;
13061;SDS011;6597;52.218;9.882;2024-01-30T07:32:27;14.93;;;7.90;;
13061;SDS011;6597;52.218;9.882;2024-01-30T07:34:54;17.70;;;8.03;;
13061;SDS011;6597;52.218;9.882;2024-01-30T07:37:20;15.57;;;7.77;;
13061;SDS011;6597;52.218;9.882;2024-01-30T07:39:47;14.20;;;7.63;;
13061;SDS011;6597;52.218;9.882;2024-01-30T07:42:14;14.50;;;8.00;;
13061;SDS011;6597;52.218;9.882;2024-01-30T07:44:40;13.50;;;7.93;;
13061;SDS011;6597;52.218;9.882;2024-01-30T07:47:08;16.97;;;8.77;;
13061;SDS011;6597;52.218;9.882;2024-01-30T07:49:35;17.30;;;8.83;;
13061;SDS011;6597;52.218;9.882;2024-01-30T07:52:02;12.30;;;7.70;;
13061;SDS011;6597;52.218;9.882;2024-01-30T07:54:32;23.23;;;8.80;;
13061;SDS011;6597;52.218;9.882;2024-01-30T07:56:59;19.10;;;8.27;;
13061;SDS011;6597;52.218;9.882;2024-01-30T07:59:26;17.73;;;7.83;;
13061;SDS011;6597;52.218;9.882;2024-01-30T08:01:53;17.20;;;7.93;;
13061;SDS011;6597;52.218;9.882;2024-01-30T08:04:20;14.53;;;7.33;;
13061;SDS011;6597;52.218;9.882;2024-01-30T08:06:47;18.70;;;8.37;;
13061;SDS011;6597;52.218;9.882;2024-01-30T08:09:14;20.60;;;9.30;;
13061;SDS011;6597;52.218;9.882;2024-01-30T08:11:40;19.63;;;9.20;;
13061;SDS011;6597;52.218;9.882;2024-01-30T08:14:07;16.53;;;8.03;;
13061;SDS011;6597;52.218;9.882;2024-01-30T08:16:33;18.13;;;9.10;;
13061;SDS011;6597;52.218;9.882;2024-01-30T08:19:00;15.83;;;8.07;;
13061;SDS011;6597;52.218;9.882;2024-01-30T08:21:28;17.00;;;9.87;;
13061;SDS011;6597;52.218;9.882;2024-01-30T08:23:54;17.93;;;9.60;;
13061;SDS011;6597;52.218;9.882;2024-01-30T08:26:21;17.53;;;8.90;;
13061;SDS011;6597;52.218;9.882;2024-01-30T08:28:47;20.00;;;10.40;;
13061;SDS011;6597;52.218;9.882;2024-01-30T08:31:15;18.57;;;9.70;;
13061;SDS011;6597;52.218;9.882;2024-01-30T08:33:42;23.70;;;10.60;;
13061;SDS011;6597;52.218;9.882;2024-01-30T08:36:08;24.00;;;15.10;;
13061;SDS011;6597;52.218;9.882;2024-01-30T08:38:36;17.63;;;8.97;;
13061;SDS011;6597;52.218;9.882;2024-01-30T08:41:03;23.03;;;12.67;;
13061;SDS011;6597;52.218;9.882;2024-01-30T08:43:30;69.40;;;38.23;;
13061;SDS011;6597;52.218;9.882;2024-01-30T08:45:58;62.97;;;36.43;;
13061;SDS011;6597;52.218;9.882;2024-01-30T08:48:25;127.60;;;62.83;;
13061;SDS011;6597;52.218;9.882;2024-01-30T08:50:51;113.63;;;63.20;;
13061;SDS011;6597;52.218;9.882;2024-01-30T08:53:18;64.83;;;32.10;;
13061;SDS011;6597;52.218;9.882;2024-01-30T08:55:46;19.70;;;10.60;;
13061;SDS011;6597;52.218;9.882;2024-01-30T08:58:12;43.83;;;24.53;;
13061;SDS011;6597;52.218;9.882;2024-01-30T09:00:40;58.20;;;37.73;;
13061;SDS011;6597;52.218;9.882;2024-01-30T09:03:07;39.40;;;25.93;;
13061;SDS011;6597;52.218;9.882;2024-01-30T09:05:33;29.60;;;17.73;;
13061;SDS011;6597;52.218;9.882;2024-01-30T09:08:00;17.50;;;9.13;;
13061;SDS011;6597;52.218;9.882;2024-01-30T09:10:26;12.13;;;7.67;;
13061;SDS011;6597;52.218;9.882;2024-01-30T09:12:54;15.67;;;7.60;;
13061;SDS011;6597;52.218;9.882;2024-01-30T09:15:21;15.07;;;7.67;;
13061;SDS011;6597;52.218;9.882;2024-01-30T09:17:48;13.27;;;7.67;;
13061;SDS011;6597;52.218;9.882;2024-01-30T09:20:14;13.77;;;7.03;;
13061;SDS011;6597;52.218;9.882;2024-01-30T09:22:41;13.53;;;7.83;;
13061;SDS011;6597;52.218;9.882;2024-01-30T09:25:08;16.10;;;7.50;;
13061;SDS011;6597;52.218;9.882;2024-01-30T09:27:35;18.80;;;12.33;;
13061;SDS011;6597;52.218;9.882;2024-01-30T09:30:03;22.73;;;15.83;;
13061;SDS011;6597;52.218;9.882;2024-01-30T09:32:30;17.73;;;12.43;;
13061;SDS011;6597;52.218;9.882;2024-01-30T09:34:56;16.93;;;9.20;;
13061;SDS011;6597;52.218;9.882;2024-01-30T09:37:23;17.97;;;8.93;;
13061;SDS011;6597;52.218;9.882;2024-01-30T09:39:50;16.03;;;8.93;;
13061;SDS011;6597;52.218;9.882;2024-01-30T09:42:18;17.73;;;8.37;;
13061;SDS011;6597;52.218;9.882;2024-01-30T09:44:52;15.73;;;8.03;;
13061;SDS011;6597;52.218;9.882;2024-01-30T09:47:21;19.50;;;9.47;;
13061;SDS011;6597;52.218;9.882;2024-01-30T09:49:47;20.77;;;9.13;;
13061;SDS011;6597;52.218;9.882;2024-01-30T09:52:15;15.73;;;8.63;;
13061;SDS011;6597;52.218;9.882;2024-01-30T09:54:41;8.83;;;6.73;;
13061;SDS011;6597;52.218;9.882;2024-01-30T09:57:09;11.03;;;6.53;;
13061;SDS011;6597;52.218;9.882;2024-01-30T09:59:37;11.20;;;6.17;;
13061;SDS011;6597;52.218;9.882;2024-01-30T10:02:04;10.97;;;6.43;;
13061;SDS011;6597;52.218;9.882;2024-01-30T10:04:32;14.63;;;7.23;;
13061;SDS011;6597;52.218;9.882;2024-01-30T10:06:59;11.30;;;7.17;;
13061;SDS011;6597;52.218;9.882;2024-01-30T10:09:27;11.43;;;6.90;;
13061;SDS011;6597;52.218;9.882;2024-01-30T10:11:54;12.40;;;7.13;;
13061;SDS011;6597;52.218;9.882;2024-01-30T10:14:20;13.47;;;7.43;;
13061;SDS011;6597;52.218;9.882;2024-01-30T10:16:47;13.90;;;7.47;;
13061;SDS011;6597;52.218;9.882;2024-01-30T10:19:13;12.97;;;7.23;;
13061;SDS011;6597;52.218;9.882;2024-01-30T10:21:41;11.87;;;6.23;;
13061;SDS011;6597;52.218;9.882;2024-01-30T10:24:08;12.17;;;6.30;;
13061;SDS011;6597;52.218;9.882;2024-01-30T10:26:37;13.73;;;6.67;;
13061;SDS011;6597;52.218;9.882;2024-01-30T10:29:04;12.93;;;6.33;;
13061;SDS011;6597;52.218;9.882;2024-01-30T10:31:31;20.10;;;7.83;;
13061;SDS011;6597;52.218;9.882;2024-01-30T10:33:57;12.10;;;6.10;;
13061;SDS011;6597;52.218;9.882;2024-01-30T10:36:25;14.57;;;6.17;;
13061;SDS011;6597;52.218;9.882;2024-01-30T10:38:57;15.37;;;6.50;;
13061;SDS011;6597;52.218;9.882;2024-01-30T10:41:26;15.93;;;6.93;;
13061;SDS011;6597;52.218;9.882;2024-01-30T10:43:55;16.03;;;6.63;;
13061;SDS011;6597;52.218;9.882;2024-01-30T10:46:29;16.30;;;7.37;;
13061;SDS011;6597;52.218;9.882;2024-01-30T10:48:59;15.03;;;7.33;;
13061;SDS011;6597;52.218;9.882;2024-01-30T10:51:26;19.17;;;7.33;;
13061;SDS011;6597;52.218;9.882;2024-01-30T10:53:54;18.40;;;6.83;;
13061;SDS011;6597;52.218;9.882;2024-01-30T10:56:23;19.00;;;6.50;;
13061;SDS011;6597;52.218;9.882;2024-01-30T10:58:51;17.17;;;7.50;;
13061;SDS011;6597;52.218;9.882;2024-01-30T11:01:18;14.00;;;7.43;;
13061;SDS011;6597;52.218;9.882;2024-01-30T11:03:48;17.23;;;6.83;;
13061;SDS011;6597;52.218;9.882;2024-01-30T11:06:15;13.80;;;6.80;;
13061;SDS011;6597;52.218;9.882;2024-01-30T11:08:43;15.07;;;6.67;;
13061;SDS011;6597;52.218;9.882;2024-01-30T11:11:11;17.33;;;6.77;;
13061;SDS011;6597;52.218;9.882;2024-01-30T11:13:38;13.00;;;6.13;;
13061;SDS011;6597;52.218;9.882;2024-01-30T11:16:04;14.30;;;6.40;;
13061;SDS011;6597;52.218;9.882;2024-01-30T11:18:32;16.50;;;6.50;;
13061;SDS011;6597;52.218;9.882;2024-01-30T11:21:04;11.37;;;5.57;;
13061;SDS011;6597;52.218;9.882;2024-01-30T11:23:32;12.67;;;6.17;;
13061;SDS011;6597;52.218;9.882;2024-01-30T11:26:00;15.10;;;6.60;;
13061;SDS011;6597;52.218;9.882;2024-01-30T11:28:33;9.87;;;5.67;;
13061;SDS011;6597;52.218;9.882;2024-01-30T11:31:03;13.90;;;6.47;;
13061;SDS011;6597;52.218;9.882;2024-01-30T11:33:30;15.97;;;6.60;;
13061;SDS011;6597;52.218;9.882;2024-01-30T11:35:58;14.57;;;6.60;;
13061;SDS011;6597;52.218;9.882;2024-01-30T11:38:25;13.67;;;6.30;;
13061;SDS011;6597;52.218;9.882;2024-01-30T11:40:52;10.87;;;5.83;;
13061;SDS011;6597;52.218;9.882;2024-01-30T11:43:19;11.37;;;6.53;;
13061;SDS011;6597;52.218;9.882;2024-01-30T11:45:47;11.90;;;5.97;;
13061;SDS011;6597;52.218;9.882;2024-01-30T11:48:14;13.40;;;6.53;;
13061;SDS011;6597;52.218;9.882;2024-01-30T11:50:40;14.17;;;6.73;;
13061;SDS011;6597;52.218;9.882;2024-01-30T11:53:07;13.90;;;6.50;;
13061;SDS011;6597;52.218;9.882;2024-01-30T11:55:34;13.77;;;5.87;;
13061;SDS011;6597;52.218;9.882;2024-01-30T11:58:02;15.50;;;6.10;;
13061;SDS011;6597;52.218;9.882;2024-01-30T12:00:30;10.27;;;6.23;;
13061;SDS011;6597;52.218;9.882;2024-01-30T12:02:59;9.63;;;5.83;;
13061;SDS011;6597;52.218;9.882;2024-01-30T12:05:27;11.73;;;6.70;;
13061;SDS011;6597;52.218;9.882;2024-01-30T12:07:54;9.40;;;5.70;;
13061;SDS011;6597;52.218;9.882;2024-01-30T12:10:23;12.50;;;6.27;;
13061;SDS011;6597;52.218;9.882;2024-01-30T12:12:50;13.47;;;6.13;;
13061;SDS011;6597;52.218;9.882;2024-01-30T12:15:21;12.73;;;6.07;;
13061;SDS011;6597;52.218;9.882;2024-01-30T12:17:48;11.33;;;5.37;;
13061;SDS011;6597;52.218;9.882;2024-01-30T12:20:17;14.83;;;7.17;;
13061;SDS011;6597;52.218;9.882;2024-01-30T12:22:44;14.37;;;6.50;;
13061;SDS011;6597;52.218;9.882;2024-01-30T12:25:12;16.93;;;6.73;;
13061;SDS011;6597;52.218;9.882;2024-01-30T12:27:39;13.03;;;6.40;;
13061;SDS011;6597;52.218;9.882;2024-01-30T12:30:08;18.03;;;7.10;;
13061;SDS011;6597;52.218;9.882;2024-01-30T12:32:36;13.80;;;6.50;;
13061;SDS011;6597;52.218;9.882;2024-01-30T12:35:03;17.10;;;6.50;;
13061;SDS011;6597;52.218;9.882;2024-01-30T12:37:34;12.67;;;6.07;;
13061;SDS011;6597;52.218;9.882;2024-01-30T12:40:01;13.93;;;6.70;;
13061;SDS011;6597;52.218;9.882;2024-01-30T12:42:27;12.20;;;5.87;;
13061;SDS011;6597;52.218;9.882;2024-01-30T12:44:56;12.80;;;6.00;;
13061;SDS011;6597;52.218;9.882;2024-01-30T12:47:23;13.27;;;5.97;;
13061;SDS011;6597;52.218;9.882;2024-01-30T12:49:50;11.57;;;5.77;;
13061;SDS011;6597;52.218;9.882;2024-01-30T12:52:18;14.47;;;5.93;;
13061;SDS011;6597;52.218;9.882;2024-01-30T12:54:47;16.37;;;6.07;;
13061;SDS011;6597;52.218;9.882;2024-01-30T12:57:13;15.47;;;5.80;;
13061;SDS011;6597;52.218;9.882;2024-01-30T12:59:40;14.87;;;6.37;;
13061;SDS011;6597;52.218;9.882;2024-01-30T13:02:07;15.93;;;6.33;;
13061;SDS011;6597;52.218;9.882;2024-01-30T13:04:34;15.83;;;6.30;;
13061;SDS011;6597;52.218;9.882;2024-01-30T13:07:01;20.20;;;7.03;;
13061;SDS011;6597;52.218;9.882;2024-01-30T13:09:29;13.53;;;6.50;;
13061;SDS011;6597;52.218;9.882;2024-01-30T13:11:57;15.80;;;6.40;;
13061;SDS011;6597;52.218;9.882;2024-01-30T13:14:24;16.67;;;6.07;;
13061;SDS011;6597;52.218;9.882;2024-01-30T13:16:51;15.77;;;6.67;;
13061;SDS011;6597;52.218;9.882;2024-01-30T13:19:18;18.13;;;7.17;;
13061;SDS011;6597;52.218;9.882;2024-01-30T13:21:45;17.07;;;6.67;;
13061;SDS011;6597;52.218;9.882;2024-01-30T13:24:12;15.17;;;6.40;;
13061;SDS011;6597;52.218;9.882;2024-01-30T13:26:39;17.83;;;7.20;;
13061;SDS011;6597;52.218;9.882;2024-01-30T13:29:07;10.23;;;5.90;;
13061;SDS011;6597;52.218;9.882;2024-01-30T13:31:34;21.33;;;7.67;;
13061;SDS011;6597;52.218;9.882;2024-01-30T13:34:00;16.93;;;6.73;;
13061;SDS011;6597;52.218;9.882;2024-01-30T13:36:27;16.47;;;6.03;;
13061;SDS011;6597;52.218;9.882;2024-01-30T13:38:54;17.67;;;6.93;;
13061;SDS011;6597;52.218;9.882;2024-01-30T13:41:20;21.33;;;7.37;;
13061;SDS011;6597;52.218;9.882;2024-01-30T13:43:48;24.33;;;7.97;;
13061;SDS011;6597;52.218;9.882;2024-01-30T13:46:15;23.90;;;8.90;;
13061;SDS011;6597;52.218;9.882;2024-01-30T13:48:42;15.50;;;7.07;;
13061;SDS011;6597;52.218;9.882;2024-01-30T13:51:09;16.87;;;7.77;;
13061;SDS011;6597;52.218;9.882;2024-01-30T13:53:36;19.43;;;7.43;;
13061;SDS011;6597;52.218;9.882;2024-01-30T13:56:02;18.47;;;6.73;;
13061;SDS011;6597;52.218;9.882;2024-01-30T13:58:29;19.37;;;7.27;;
13061;SDS011;6597;52.218;9.882;2024-01-30T14:00:58;18.50;;;7.13;;
13061;SDS011;6597;52.218;9.882;2024-01-30T14:03:26;22.40;;;7.80;;
13061;SDS011;6597;52.218;9.882;2024-01-30T14:05:53;21.73;;;7.30;;
13061;SDS011;6597;52.218;9.882;2024-01-30T14:08:19;21.63;;;7.07;;
13061;SDS011;6597;52.218;9.882;2024-01-30T14:10:49;16.00;;;7.37;;
13061;SDS011;6597;52.218;9.882;2024-01-30T14:13:15;17.77;;;7.13;;
13061;SDS011;6597;52.218;9.882;2024-01-30T14:15:42;17.43;;;6.80;;
13061;SDS011;6597;52.218;9.882;2024-01-30T14:18:09;25.57;;;8.40;;
13061;SDS011;6597;52.218;9.882;2024-01-30T14:20:38;17.77;;;6.80;;
13061;SDS011;6597;52.218;9.882;2024-01-30T14:23:04;16.93;;;6.63;;
13061;SDS011;6597;52.218;9.882;2024-01-30T14:25:32;18.30;;;7.03;;
13061;SDS011;6597;52.218;9.882;2024-01-30T14:27:58;16.10;;;7.23;;
13061;SDS011;6597;52.218;9.882;2024-01-30T14:30:25;24.77;;;8.10;;
13061;SDS011;6597;52.218;9.882;2024-01-30T14:32:51;20.80;;;8.57;;
13061;SDS011;6597;52.218;9.882;2024-01-30T14:35:18;22.97;;;8.43;;
13061;SDS011;6597;52.218;9.882;2024-01-30T14:37:46;16.50;;;6.63;;
13061;SDS011;6597;52.218;9.882;2024-01-30T14:40:13;16.67;;;7.27;;
13061;SDS011;6597;52.218;9.882;2024-01-30T14:42:40;19.40;;;7.03;;
13061;SDS011;6597;52.218;9.882;2024-01-30T14:45:06;23.70;;;7.77;;
13061;SDS011;6597;52.218;9.882;2024-01-30T14:47:34;17.23;;;7.23;;